createdAt,value
2023-05-17T00:00:58.044Z,0.00
2023-05-17T00:03:27.175Z,0.20
2023-05-17T00:05:54.060Z,0.10
2023-05-17T00:08:20.871Z,0.10
2023-05-17T00:10:48.734Z,0.10
2023-05-17T00:13:18.390Z,0.10
2023-05-17T00:15:45.126Z,0.00
2023-05-17T00:18:11.912Z,0.10
2023-05-17T00:20:38.864Z,0.08
2023-05-17T00:23:08.278Z,0.10
2023-05-17T00:25:42.652Z,0.10
2023-05-17T00:28:09.412Z,0.20
2023-05-17T00:30:36.047Z,0.03
2023-05-17T00:33:04.339Z,0.10
2023-05-17T00:35:33.402Z,0.10
2023-05-17T00:38:00.256Z,0.10
2023-05-17T00:40:27.084Z,0.10
2023-05-17T00:42:55.686Z,0.10
2023-05-17T00:45:27.645Z,0.03
2023-05-17T00:47:56.013Z,0.10
2023-05-17T00:50:23.452Z,0.05
2023-05-17T00:52:54.918Z,0.10
2023-05-17T00:55:22.364Z,0.05
2023-05-17T00:57:49.801Z,0.10
2023-05-17T01:00:17.188Z,0.10
2023-05-17T01:02:48.589Z,0.10
2023-05-17T01:05:15.770Z,0.15
2023-05-17T01:07:42.489Z,0.10
2023-05-17T01:10:11.170Z,0.10
2023-05-17T01:13:06.426Z,0.00
2023-05-17T01:15:36.444Z,0.00
2023-05-17T01:18:31.536Z,0.10
2023-05-17T01:21:01.451Z,0.00
2023-05-17T01:23:46.868Z,0.10
2023-05-17T01:26:19.446Z,0.00
2023-05-17T01:28:48.936Z,0.10
2023-05-17T01:31:17.211Z,0.00
2023-05-17T01:33:44.163Z,0.00
2023-05-17T01:36:10.964Z,0.00
2023-05-17T01:38:37.716Z,0.00
2023-05-17T01:41:40.270Z,0.00
2023-05-17T01:44:31.856Z,0.00
2023-05-17T01:47:14.415Z,0.20
2023-05-17T01:49:46.848Z,0.30
2023-05-17T01:52:26.439Z,0.35
2023-05-17T01:55:07.857Z,0.10
2023-05-17T01:57:39.331Z,0.00
2023-05-17T02:00:10.379Z,0.00
2023-05-17T02:02:43.306Z,0.00
2023-05-17T02:05:10.098Z,0.10
2023-05-17T02:07:39.713Z,0.00
2023-05-17T02:10:06.864Z,0.08
2023-05-17T02:12:33.706Z,0.00
2023-05-17T02:15:01.191Z,0.00
2023-05-17T02:17:28.134Z,0.03
2023-05-17T02:19:54.802Z,0.00
2023-05-17T02:22:21.393Z,0.00
2023-05-17T02:24:48.926Z,0.00
2023-05-17T02:27:15.815Z,0.00
2023-05-17T02:29:42.754Z,0.10
2023-05-17T02:32:09.386Z,0.10
2023-05-17T02:34:36.059Z,0.00
2023-05-17T02:37:02.701Z,0.08
2023-05-17T02:39:29.379Z,0.00
2023-05-17T02:41:55.980Z,0.00
2023-05-17T02:44:23.813Z,0.10
2023-05-17T02:46:50.479Z,0.05
2023-05-17T02:49:17.091Z,0.05
2023-05-17T02:51:43.810Z,0.10
2023-05-17T02:54:10.465Z,0.00
2023-05-17T02:56:37.113Z,0.00
2023-05-17T02:59:03.883Z,0.00
2023-05-17T03:01:37.342Z,0.10
2023-05-17T03:04:04.690Z,0.00
2023-05-17T03:06:31.697Z,0.00
2023-05-17T03:08:58.567Z,0.10
2023-05-17T03:11:25.303Z,0.00
2023-05-17T03:13:53.995Z,0.00
2023-05-17T03:16:24.897Z,0.10
2023-05-17T03:18:52.440Z,0.00
2023-05-17T03:21:19.864Z,0.00
2023-05-17T03:23:47.410Z,0.00
2023-05-17T03:26:14.145Z,0.00
2023-05-17T03:28:46.483Z,0.05
2023-05-17T03:31:13.410Z,0.00
2023-05-17T03:33:40.121Z,0.00
2023-05-17T03:36:07.383Z,0.00
2023-05-17T03:38:34.154Z,0.03
2023-05-17T03:41:00.975Z,0.03
2023-05-17T03:43:28.659Z,0.00
2023-05-17T03:45:57.167Z,0.00
2023-05-17T03:48:23.958Z,0.00
2023-05-17T03:50:51.089Z,0.00
2023-05-17T03:53:17.819Z,0.00
2023-05-17T03:55:44.435Z,0.10
2023-05-17T03:58:11.164Z,0.00
2023-05-17T04:00:40.264Z,0.10
2023-05-17T04:03:13.399Z,0.10
2023-05-17T04:05:41.431Z,0.00
2023-05-17T04:08:08.787Z,0.00
2023-05-17T04:10:35.608Z,0.00
2023-05-17T04:13:04.059Z,0.00
2023-05-17T04:15:32.463Z,0.10
2023-05-17T04:18:01.787Z,0.00
2023-05-17T04:20:29.032Z,0.00
2023-05-17T04:22:55.679Z,0.00
2023-05-17T04:25:25.733Z,0.10
2023-05-17T04:27:52.426Z,0.10
2023-05-17T04:30:21.406Z,0.00
2023-05-17T04:32:48.141Z,0.00
2023-05-17T04:35:14.962Z,0.00
2023-05-17T04:37:44.517Z,0.20
2023-05-17T04:40:21.276Z,0.10
2023-05-17T04:42:48.950Z,0.10
2023-05-17T04:45:17.703Z,0.10
2023-05-17T04:47:44.612Z,0.15
2023-05-17T04:50:12.429Z,0.00
2023-05-17T04:52:39.228Z,0.10
2023-05-17T04:55:06.488Z,0.17
2023-05-17T04:57:33.133Z,0.03
2023-05-17T05:00:07.443Z,0.20
2023-05-17T05:02:36.141Z,0.20
2023-05-17T05:05:05.060Z,0.20
2023-05-17T05:07:32.506Z,0.10
2023-05-17T05:09:59.360Z,0.10
2023-05-17T05:12:26.056Z,0.10
2023-05-17T05:14:53.226Z,0.10
2023-05-17T05:17:19.965Z,0.30
2023-05-17T05:19:46.652Z,0.10
2023-05-17T05:22:13.515Z,0.08
2023-05-17T05:24:40.988Z,0.10
2023-05-17T05:27:07.642Z,0.10
2023-05-17T05:29:35.632Z,0.10
2023-05-17T05:32:02.848Z,0.10
2023-05-17T05:34:31.721Z,0.15
2023-05-17T05:36:59.436Z,0.50
2023-05-17T05:39:27.854Z,0.28
2023-05-17T05:41:54.470Z,0.13
2023-05-17T05:44:21.140Z,0.10
2023-05-17T05:46:49.530Z,0.10
2023-05-17T05:49:16.599Z,0.10
2023-05-17T05:51:43.709Z,0.10
2023-05-17T05:54:10.872Z,0.00
2023-05-17T05:56:38.554Z,0.10
2023-05-17T05:59:07.160Z,0.10
2023-05-17T06:01:34.182Z,0.00
2023-05-17T06:04:00.886Z,0.13
2023-05-17T06:06:27.684Z,0.00
2023-05-17T06:08:54.401Z,0.10
2023-05-17T06:11:23.723Z,0.10
2023-05-17T06:13:50.351Z,0.00
2023-05-17T06:16:16.997Z,0.10
2023-05-17T06:18:43.741Z,0.10
2023-05-17T06:21:14.449Z,0.00
2023-05-17T06:23:41.155Z,0.03
2023-05-17T06:26:12.581Z,0.10
2023-05-17T06:28:39.365Z,0.10
2023-05-17T06:31:06.032Z,0.00
2023-05-17T06:33:32.817Z,0.10
2023-05-17T06:38:27.307Z,0.10
2023-05-17T06:40:54.937Z,0.10
2023-05-17T06:43:22.230Z,0.10
2023-05-17T06:45:48.873Z,0.10
2023-05-17T06:48:16.282Z,0.05
2023-05-17T06:50:43.135Z,0.10
2023-05-17T06:53:09.826Z,0.00
2023-05-17T06:55:36.713Z,0.10
2023-05-17T06:58:03.353Z,0.10
2023-05-17T07:00:30.424Z,0.10
2023-05-17T07:02:57.346Z,0.20
2023-05-17T07:05:24.323Z,0.08
2023-05-17T07:07:51.206Z,0.10
2023-05-17T07:10:17.829Z,0.10
2023-05-17T07:12:45.472Z,0.00
2023-05-17T07:15:12.128Z,0.43
2023-05-17T07:17:38.918Z,0.20
2023-05-17T07:20:06.408Z,0.20
2023-05-17T07:22:33.693Z,0.03
2023-05-17T07:25:00.511Z,0.10
2023-05-17T07:27:27.185Z,0.10
2023-05-17T07:29:53.931Z,0.00
2023-05-17T07:32:20.582Z,0.00
2023-05-17T07:34:47.370Z,0.10
2023-05-17T07:37:14.264Z,0.00
2023-05-17T07:39:40.903Z,0.13
2023-05-17T07:42:07.802Z,0.00
2023-05-17T07:44:34.509Z,0.10
2023-05-17T07:47:02.307Z,0.10
2023-05-17T07:49:30.876Z,0.00
2023-05-17T07:51:58.859Z,0.10
2023-05-17T07:54:29.340Z,0.10
2023-05-17T07:56:56.113Z,0.00
2023-05-17T07:59:23.629Z,0.10
2023-05-17T08:01:51.006Z,0.00
2023-05-17T08:04:19.127Z,0.10
2023-05-17T08:06:46.957Z,0.08
2023-05-17T08:09:13.901Z,0.10
2023-05-17T08:11:45.849Z,0.20
2023-05-17T08:14:16.338Z,0.00
2023-05-17T08:16:43.959Z,0.03
2023-05-17T08:19:15.885Z,0.10
2023-05-17T08:21:43.679Z,0.00
2023-05-17T08:24:10.470Z,0.00
2023-05-17T08:26:37.159Z,0.08
2023-05-17T08:29:04.794Z,0.03
2023-05-17T08:31:32.632Z,0.10
2023-05-17T08:33:59.430Z,0.00
2023-05-17T08:36:26.239Z,0.10
2023-05-17T08:38:52.860Z,0.10
2023-05-17T08:41:20.812Z,0.10
2023-05-17T08:43:49.290Z,0.10
2023-05-17T08:46:17.438Z,0.03
2023-05-17T08:48:45.344Z,0.10
2023-05-17T08:51:12.361Z,0.00
2023-05-17T08:53:39.050Z,0.00
2023-05-17T08:56:07.014Z,0.10
2023-05-17T08:58:51.748Z,0.10
2023-05-17T09:01:26.021Z,0.10
2023-05-17T09:03:53.855Z,0.10
2023-05-17T09:06:21.713Z,0.20
2023-05-17T09:08:52.675Z,0.03
2023-05-17T09:11:30.726Z,0.00
2023-05-17T09:14:02.087Z,0.40
2023-05-17T09:16:33.728Z,0.10
2023-05-17T09:19:01.312Z,0.15
2023-05-17T09:21:30.996Z,0.13
2023-05-17T09:24:06.476Z,0.00
2023-05-17T09:26:40.602Z,0.10
2023-05-17T09:31:38.952Z,0.10
2023-05-17T09:34:08.014Z,0.10
2023-05-17T09:36:39.349Z,0.10
2023-05-17T09:39:10.745Z,0.20
2023-05-17T09:41:46.828Z,0.70
2023-05-17T09:44:14.630Z,0.50
2023-05-17T09:46:45.984Z,0.32
2023-05-17T09:49:13.160Z,0.22
2023-05-17T09:51:42.464Z,0.10
2023-05-17T09:54:13.284Z,0.00
2023-05-17T09:56:40.443Z,0.13
2023-05-17T09:59:15.172Z,0.38
2023-05-17T10:01:45.023Z,0.30
2023-05-17T10:04:12.830Z,0.30
2023-05-17T10:09:14.265Z,0.20
2023-05-17T10:11:45.979Z,0.20
2023-05-17T10:14:24.059Z,0.10
2023-05-17T10:16:52.230Z,0.10
2023-05-17T10:19:21.059Z,0.20
2023-05-17T10:21:49.983Z,0.20
2023-05-17T10:24:17.147Z,0.10
2023-05-17T10:26:44.220Z,0.10
2023-05-17T10:29:11.116Z,0.00
2023-05-17T10:31:37.839Z,0.10
2023-05-17T10:34:05.806Z,0.10
2023-05-17T10:36:33.668Z,0.10
2023-05-17T10:39:01.930Z,0.10
2023-05-17T10:41:34.580Z,0.10
2023-05-17T10:46:30.495Z,0.10
2023-05-17T10:49:01.794Z,0.10
2023-05-17T10:51:33.852Z,0.10
2023-05-17T10:54:13.100Z,0.30
2023-05-17T10:56:42.675Z,0.20
2023-05-17T10:59:21.505Z,0.20
2023-05-17T11:01:55.552Z,0.10
2023-05-17T11:04:42.429Z,0.15
2023-05-17T11:07:29.293Z,0.13
2023-05-17T11:10:10.290Z,0.10
2023-05-17T11:12:46.045Z,0.03
2023-05-17T11:15:15.083Z,0.00
2023-05-17T11:17:46.500Z,0.00
2023-05-17T11:20:27.702Z,0.10
2023-05-17T11:23:01.507Z,0.10
2023-05-17T11:25:30.963Z,0.10
2023-05-17T11:27:59.089Z,0.28
2023-05-17T11:30:30.941Z,0.00
2023-05-17T11:33:17.333Z,0.10
2023-05-17T11:35:54.647Z,0.10
2023-05-17T11:38:30.308Z,0.10
2023-05-17T11:40:57.847Z,0.10
2023-05-17T11:43:30.842Z,0.28
2023-05-17T11:46:01.325Z,0.00
2023-05-17T11:48:29.860Z,0.10
2023-05-17T11:50:57.518Z,0.08
2023-05-17T11:53:27.402Z,0.20
2023-05-17T11:55:54.222Z,0.10
2023-05-17T11:58:25.179Z,0.10
2023-05-17T12:00:57.750Z,0.10
2023-05-17T12:03:27.258Z,0.00
2023-05-17T12:06:08.137Z,0.10
2023-05-17T12:08:36.859Z,0.10
2023-05-17T12:11:05.519Z,0.10
2023-05-17T12:13:34.213Z,0.22
2023-05-17T12:16:13.689Z,0.10
2023-05-17T12:18:48.241Z,0.00
2023-05-17T12:21:16.112Z,0.10
2023-05-17T12:23:46.147Z,0.10
2023-05-17T12:26:17.522Z,0.10
2023-05-17T12:28:46.097Z,0.13
2023-05-17T12:31:19.118Z,0.10
2023-05-17T12:33:47.988Z,0.20
2023-05-17T12:36:15.329Z,0.20
2023-05-17T12:38:43.435Z,0.05
2023-05-17T12:41:12.504Z,0.20
2023-05-17T12:43:40.180Z,0.10
2023-05-17T12:46:12.240Z,0.10
2023-05-17T12:48:41.134Z,0.30
2023-05-17T12:51:16.418Z,0.20
2023-05-17T12:54:03.283Z,0.20
2023-05-17T12:56:30.641Z,0.10
2023-05-17T12:59:13.401Z,0.20
2023-05-17T13:01:48.077Z,0.10
2023-05-17T13:04:17.101Z,0.13
2023-05-17T13:06:48.277Z,0.10
2023-05-17T13:09:16.228Z,0.20
2023-05-17T13:11:43.049Z,0.10
2023-05-17T13:14:12.713Z,0.25
2023-05-17T13:16:40.351Z,0.17
2023-05-17T13:19:14.301Z,0.00
2023-05-17T13:21:41.215Z,0.10
2023-05-17T13:24:10.658Z,0.10
2023-05-17T13:26:37.507Z,0.15
2023-05-17T13:29:04.129Z,0.20
2023-05-17T13:31:30.790Z,0.10
2023-05-17T13:33:57.549Z,0.10
2023-05-17T13:36:24.282Z,0.10
2023-05-17T13:38:51.029Z,0.10
2023-05-17T13:41:17.704Z,0.10
2023-05-17T13:43:44.380Z,0.10
2023-05-17T13:46:10.992Z,0.10
2023-05-17T13:48:39.801Z,0.10
2023-05-17T13:51:08.605Z,0.10
2023-05-17T13:53:35.231Z,0.10
2023-05-17T13:56:01.929Z,0.22
2023-05-17T13:58:28.525Z,0.10
2023-05-17T14:00:55.260Z,0.10
2023-05-17T14:03:22.192Z,0.17
2023-05-17T14:05:50.606Z,0.10
2023-05-17T14:08:17.663Z,0.13
2023-05-17T14:10:44.499Z,0.10
2023-05-17T14:13:12.026Z,0.20
2023-05-17T14:15:39.776Z,0.10
2023-05-17T14:18:07.896Z,0.17
2023-05-17T14:20:34.625Z,0.28
2023-05-17T14:23:01.794Z,0.25
2023-05-17T14:25:28.469Z,0.30
2023-05-17T14:27:55.214Z,0.35
2023-05-17T14:30:21.977Z,0.45
2023-05-17T14:32:48.676Z,0.85
2023-05-17T14:35:16.712Z,0.82
2023-05-17T14:37:43.637Z,1.05
2023-05-17T14:40:10.709Z,1.30
2023-05-17T14:42:37.510Z,0.50
2023-05-17T14:45:04.990Z,0.60
2023-05-17T14:47:31.810Z,0.30
2023-05-17T14:49:58.956Z,0.60
2023-05-17T14:52:25.873Z,0.30
2023-05-17T14:54:52.665Z,0.40
2023-05-17T14:57:21.239Z,0.43
2023-05-17T14:59:48.268Z,0.43
2023-05-17T15:02:14.900Z,0.80
2023-05-17T15:04:41.628Z,0.50
2023-05-17T15:07:08.449Z,0.60
2023-05-17T15:09:42.145Z,0.60
2023-05-17T15:12:14.015Z,0.32
2023-05-17T15:14:41.031Z,0.52
2023-05-17T15:17:08.169Z,0.40
2023-05-17T15:19:34.928Z,0.50
2023-05-17T15:22:01.956Z,0.50
2023-05-17T15:24:31.085Z,0.35
2023-05-17T15:26:57.745Z,0.50
2023-05-17T15:29:24.428Z,0.40
2023-05-17T15:31:51.643Z,0.40
2023-05-17T15:34:18.457Z,0.40
2023-05-17T15:36:45.239Z,0.20
2023-05-17T15:39:11.876Z,0.20
2023-05-17T15:41:39.745Z,0.30
2023-05-17T15:44:07.867Z,0.30
2023-05-17T15:46:34.574Z,0.22
2023-05-17T15:49:01.391Z,0.40
2023-05-17T15:51:28.038Z,0.32
2023-05-17T15:53:55.894Z,0.25
2023-05-17T15:56:23.266Z,0.30
2023-05-17T15:58:50.208Z,0.28
2023-05-17T16:01:16.867Z,0.40
2023-05-17T16:03:43.551Z,0.25
2023-05-17T16:06:10.422Z,0.20
2023-05-17T16:08:37.235Z,0.40
2023-05-17T16:11:03.948Z,0.30
2023-05-17T16:13:31.121Z,0.70
2023-05-17T16:16:01.093Z,0.40
2023-05-17T16:18:28.350Z,0.30
2023-05-17T16:21:07.968Z,0.10
2023-05-17T16:23:34.625Z,0.20
2023-05-17T16:26:01.456Z,0.30
2023-05-17T16:28:28.183Z,0.30
2023-05-17T16:30:54.996Z,0.30
2023-05-17T16:33:21.786Z,0.40
2023-05-17T16:35:49.241Z,0.30
2023-05-17T16:38:16.966Z,0.32
2023-05-17T16:40:43.795Z,0.30
2023-05-17T16:43:15.664Z,0.30
2023-05-17T16:45:46.396Z,0.30
2023-05-17T16:48:15.033Z,0.30
2023-05-17T16:50:42.321Z,0.20
2023-05-17T16:53:09.126Z,0.47
2023-05-17T16:55:36.673Z,0.38
2023-05-17T16:58:03.672Z,0.30
2023-05-17T17:00:31.231Z,0.40
2023-05-17T17:02:58.645Z,0.60
2023-05-17T17:05:25.780Z,0.30
2023-05-17T17:07:52.611Z,0.40
2023-05-17T17:10:20.172Z,0.40
2023-05-17T17:12:48.117Z,0.40
2023-05-17T17:15:15.565Z,0.40
2023-05-17T17:17:42.709Z,0.30
2023-05-17T17:20:09.965Z,0.40
2023-05-17T17:22:36.574Z,0.73
2023-05-17T17:25:03.455Z,0.35
2023-05-17T17:27:30.070Z,0.40
2023-05-17T17:29:56.740Z,0.30
2023-05-17T17:32:23.466Z,0.50
2023-05-17T17:34:50.128Z,0.22
2023-05-17T17:37:16.801Z,0.50
2023-05-17T17:39:43.576Z,0.28
2023-05-17T17:42:10.893Z,0.40
2023-05-17T17:44:37.612Z,0.73
2023-05-17T17:47:04.346Z,0.88
2023-05-17T17:49:31.147Z,0.60
2023-05-17T17:51:58.262Z,0.50
2023-05-17T17:54:25.058Z,0.40
2023-05-17T17:56:52.096Z,0.30
2023-05-17T17:59:18.685Z,0.45
2023-05-17T18:01:45.557Z,0.30
2023-05-17T18:04:13.599Z,0.30
2023-05-17T18:06:41.902Z,0.40
2023-05-17T18:09:08.744Z,0.60
2023-05-17T18:11:35.662Z,0.50
2023-05-17T18:14:06.165Z,0.30
2023-05-17T18:16:33.008Z,0.40
2023-05-17T18:19:00.782Z,0.30
2023-05-17T18:21:29.318Z,0.40
2023-05-17T18:23:56.048Z,0.40
2023-05-17T18:26:23.348Z,0.30
2023-05-17T18:28:51.158Z,0.40
2023-05-17T18:31:18.528Z,0.30
2023-05-17T18:33:45.626Z,0.50
2023-05-17T18:36:12.329Z,0.40
2023-05-17T18:38:39.185Z,0.40
2023-05-17T18:41:05.847Z,0.20
2023-05-17T18:43:32.650Z,0.22
2023-05-17T18:45:59.276Z,0.32
2023-05-17T18:48:26.602Z,0.40
2023-05-17T18:50:53.394Z,0.35
2023-05-17T18:53:20.127Z,0.40
2023-05-17T18:55:46.737Z,0.35
2023-05-17T18:58:13.356Z,0.30
2023-05-17T19:00:40.077Z,0.30
2023-05-17T19:03:06.770Z,0.30
2023-05-17T19:05:33.464Z,0.40
2023-05-17T19:08:00.108Z,0.32
2023-05-17T19:10:26.925Z,0.40
2023-05-17T19:12:53.683Z,0.22
2023-05-17T19:15:20.716Z,0.43
2023-05-17T19:17:47.442Z,0.30
2023-05-17T19:20:14.219Z,0.40
2023-05-17T19:22:40.829Z,0.43
2023-05-17T19:25:07.883Z,0.40
2023-05-17T19:27:34.478Z,0.30
2023-05-17T19:30:01.092Z,0.43
2023-05-17T19:32:27.779Z,0.30
2023-05-17T19:34:54.910Z,0.60
2023-05-17T19:37:21.526Z,0.35
2023-05-17T19:39:48.156Z,0.50
2023-05-17T19:42:14.887Z,0.40
2023-05-17T19:44:41.512Z,0.35
2023-05-17T19:47:08.123Z,0.40
2023-05-17T19:49:34.896Z,0.40
2023-05-17T19:52:01.632Z,0.30
2023-05-17T19:54:29.287Z,0.28
2023-05-17T19:56:56.558Z,0.40
2023-05-17T19:59:23.148Z,0.30
2023-05-17T20:01:50.828Z,0.30
2023-05-17T20:04:17.562Z,0.28
2023-05-17T20:06:44.360Z,0.30
2023-05-17T20:09:11.238Z,0.20
2023-05-17T20:11:38.010Z,0.80
2023-05-17T20:14:04.642Z,0.50
2023-05-17T20:16:31.377Z,0.40
2023-05-17T20:18:58.566Z,0.40
2023-05-17T20:21:26.435Z,0.10
2023-05-17T20:24:00.605Z,0.30
2023-05-17T20:26:31.517Z,0.50
2023-05-17T20:28:59.059Z,0.30
2023-05-17T20:31:26.315Z,0.30
2023-05-17T20:33:53.493Z,0.30
2023-05-17T20:36:20.399Z,0.30
2023-05-17T20:38:47.067Z,0.30
2023-05-17T20:41:15.841Z,0.30
2023-05-17T20:43:46.143Z,0.30
2023-05-17T20:46:13.718Z,0.40
2023-05-17T20:48:42.881Z,0.30
2023-05-17T20:51:10.371Z,0.30
2023-05-17T20:53:37.326Z,0.40
2023-05-17T20:56:04.322Z,0.20
2023-05-17T20:58:31.093Z,0.30
2023-05-17T21:00:59.919Z,0.30
2023-05-17T21:03:33.266Z,0.25
2023-05-17T21:06:01.331Z,0.30
2023-05-17T21:08:28.341Z,0.22
2023-05-17T21:10:55.855Z,0.20
2023-05-17T21:13:23.949Z,0.20
2023-05-17T21:15:50.660Z,0.32
2023-05-17T21:18:17.439Z,0.20
2023-05-17T21:20:44.063Z,0.20
2023-05-17T21:23:10.848Z,0.30
2023-05-17T21:25:37.882Z,0.20
2023-05-17T21:28:05.222Z,0.22
2023-05-17T21:30:31.971Z,0.30
2023-05-17T21:32:58.864Z,0.30
2023-05-17T21:35:25.591Z,0.30
2023-05-17T21:37:52.280Z,0.40
2023-05-17T21:40:18.972Z,0.30
2023-05-17T21:42:46.132Z,0.30
2023-05-17T21:45:14.609Z,0.45
2023-05-17T21:47:41.418Z,0.47
2023-05-17T21:50:08.437Z,0.20
2023-05-17T21:52:35.501Z,0.20
2023-05-17T21:55:02.216Z,0.30
2023-05-17T21:57:28.829Z,0.55
2023-05-17T21:59:55.616Z,0.35
2023-05-17T22:02:22.238Z,0.30
2023-05-17T22:04:48.852Z,0.30
2023-05-17T22:07:15.670Z,0.50
2023-05-17T22:09:42.300Z,0.47
2023-05-17T22:12:09.272Z,0.40
2023-05-17T22:14:36.388Z,0.50
2023-05-17T22:17:08.739Z,0.30
2023-05-17T22:19:40.719Z,0.60
2023-05-17T22:22:08.221Z,0.30
2023-05-17T22:24:35.459Z,0.40
2023-05-17T22:27:03.500Z,0.30
2023-05-17T22:29:30.367Z,0.25
2023-05-17T22:31:57.018Z,0.30
2023-05-17T22:34:23.747Z,0.50
2023-05-17T22:36:50.398Z,0.35
2023-05-17T22:39:17.040Z,0.32
2023-05-17T22:41:43.866Z,0.47
2023-05-17T22:44:10.728Z,0.40
2023-05-17T22:46:38.579Z,0.30
2023-05-17T22:49:05.283Z,0.45
2023-05-17T22:51:34.951Z,0.40
2023-05-17T22:54:03.208Z,0.30
2023-05-17T22:56:30.218Z,0.40
2023-05-17T22:58:58.210Z,0.52
2023-05-17T23:01:25.253Z,0.30
2023-05-17T23:03:51.989Z,0.40
2023-05-17T23:06:22.002Z,0.30
2023-05-17T23:08:49.602Z,0.30
2023-05-17T23:11:16.251Z,0.30
2023-05-17T23:13:42.909Z,0.40
2023-05-17T23:16:09.627Z,0.35
2023-05-17T23:18:37.951Z,0.40
2023-05-17T23:21:04.782Z,0.22
2023-05-17T23:23:31.374Z,0.50
2023-05-17T23:25:58.732Z,0.25
2023-05-17T23:28:25.355Z,0.43
2023-05-17T23:30:53.646Z,0.30
2023-05-17T23:33:20.459Z,0.30
2023-05-17T23:35:47.110Z,0.40
2023-05-17T23:38:14.008Z,0.40
2023-05-17T23:40:40.908Z,0.30
2023-05-17T23:43:10.014Z,0.30
2023-05-17T23:45:36.903Z,0.30
2023-05-17T23:48:03.728Z,0.30
2023-05-17T23:50:32.839Z,0.35
2023-05-17T23:53:03.654Z,0.30
2023-05-17T23:55:31.094Z,0.30
2023-05-17T23:57:58.171Z,0.22
